Latest Weather Observations for Wynyard

IDT60801

Issued at 3:35 pm EDT Monday 24 November 2014 (issued every 30 minutes, with the page automatically refreshed every 10 minutes)

About weather observations | Map of weather stations | Latest weather observations for TAS | Other Formats
Station Details ID: 091107 Name: WYNYARD AIRPORT Lat: -41.00 Lon: 145.73 Height: 12.0 m
Data from the previous 72 hours. | See also: Recent months at Wynyard
Date/Time
EDT
Temp
°C
App
Temp
°C
Dew
Point
Rel
Hum
%
Delta-T
°C
Wind Press
QNH
hPa
Press
MSL
hPa
Rain
since 9 am
mm
Dir
 
Spd
km/h
Gust
km/h
Spd
kts
Gust
kts
24/03:30pm 13.5 12.2 12.6 94 0.5 ESE 11 19 6 10 1005.0 1005.0 1.0
24/03:24pm 13.5 12.1 12.2 92 0.7 E 11 19 6 10 1005.1 1005.1 1.0
24/03:21pm 13.5 12.1 12.1 91 0.8 E 11 19 6 10 1005.0 1005.0 1.0
24/03:00pm 13.8 12.4 12.2 90 0.9 E 11 15 6 8 1005.3 1005.3 1.0
24/02:30pm 13.8 11.2 10.8 82 1.6 E 15 20 8 11 1005.6 1005.6 1.0
24/02:00pm 14.0 10.9 10.2 78 2.0 E 17 22 9 12 1005.9 1005.9 1.0
24/01:30pm 14.1 11.6 10.9 81 1.7 E 15 20 8 11 1006.7 1006.7 1.0
24/01:00pm 14.5 13.3 12.9 90 0.9 E 11 17 6 9 1007.5 1007.5 1.0
24/12:30pm 13.9 12.9 12.3 90 0.9 ENE 9 19 5 10 1007.8 1007.8 1.0
24/12:00pm 14.1 13.7 12.3 89 1.0 ENE 6 11 3 6 1008.1 1008.1 0.6
24/11:30am 14.0 13.0 10.4 79 1.9 ESE 6 7 3 4 1008.9 1008.9 0.6
24/11:00am 14.5 13.4 11.8 84 1.5 E 9 15 5 8 1009.0 1009.0 0.4
24/10:30am 14.3 14.1 12.9 91 0.8 SSW 6 9 3 5 1009.5 1009.5 0.4
24/10:00am 13.5 13.4 13.3 99 0.1 SW 6 11 3 6 1010.3 1010.3 0.2
24/09:30am 13.2 12.7 11.9 92 0.7 E 6 9 3 5 1009.8 1009.8 0.0
24/09:00am 12.5 11.5 12.3 99 0.1 S 9 13 5 7 1009.5 1009.5 0.8
24/08:30am 11.7 9.7 11.5 99 0.1 W 13 17 7 9 1010.7 1010.7 0.2
24/08:00am 12.1 11.6 11.9 99 0.1 WNW 6 9 3 5 1010.3 1010.3 0.0
24/07:30am 11.1 10.3 10.9 99 0.1 W 6 9 3 5 1010.2 1010.2 0.0
24/07:00am 10.5 8.8 10.0 97 0.3 W 9 13 5 7 1010.4 1010.4 0.0
24/06:30am 10.1 8.7 9.5 96 0.3 W 7 9 4 5 1010.3 1010.3 0.0
24/06:00am 10.0 8.7 9.1 94 0.4 WNW 6 9 3 5 1009.9 1009.9 0.0
24/05:30am 9.9 8.4 9.1 95 0.4 W 7 9 4 5 1009.8 1009.8 0.0
24/05:00am 9.2 7.1 8.4 95 0.4 WSW 9 11 5 6 1010.7 1010.7 0.0
24/04:30am 9.1 7.5 8.2 94 0.4 W 6 7 3 4 1010.9 1010.9 0.0
24/04:00am 8.8 6.3 8.4 97 0.2 WSW 11 13 6 7 1011.4 1011.4 0.0
24/03:30am 8.5 6.4 8.4 99 0.0 W 9 13 5 7 1011.7 1011.7 0.0
24/03:00am 7.2 4.4 7.1 99 0.0 W 11 13 6 7 1011.7 1011.7 0.0
24/02:30am 6.9 4.5 6.8 99 0.0 WSW 9 11 5 6 1011.8 1011.8 0.0
24/02:00am 6.8 3.9 6.7 99 0.0 W 11 13 6 7 1011.8 1011.8 0.0
24/01:30am 7.4 4.5 6.3 93 0.5 W 11 13 6 7 1011.9 1011.9 0.0
24/01:00am 8.3 6.4 7.5 95 0.4 SW 7 13 4 7 1011.9 1011.9 0.0
24/12:30am 8.7 6.4 7.6 93 0.5 SW 9 11 5 6 1012.3 1012.3 0.0
24/12:00am 10.1 8.3 8.0 87 1.0 WSW 7 9 4 5 1012.5 1012.5 0.0
 
Date/Time
EDT
Temp
°C
App
Temp
°C
Dew
Point
Rel
Hum
%
Delta-T
°C
Wind Press
QNH
hPa
Press
MSL
hPa
Rain
since 9 am
mm
Dir
 
Spd
km/h
Gust
km/h
Spd
kts
Gust
kts
23/11:30pm 11.1 9.4 7.6 79 1.7 WSW 6 7 3 4 1012.6 1012.6 0.0
23/11:00pm 11.4 9.4 7.1 75 2.1 WSW 7 7 4 4 1012.6 1012.6 0.0
23/10:30pm 11.2 8.9 7.5 78 1.8 WSW 9 11 5 6 1012.5 1012.5 0.0
23/10:00pm 12.1 9.0 7.2 72 2.4 SW 13 15 7 8 1012.6 1012.6 0.0
23/09:30pm 13.8 10.6 6.7 62 3.4 W 13 15 7 8 1012.6 1012.6 0.0
23/09:00pm 14.8 11.1 6.4 57 4.1 W 15 17 8 9 1012.7 1012.7 0.0
23/08:30pm 15.6 12.0 6.6 55 4.4 W 15 19 8 10 1012.5 1012.5 0.0
23/08:00pm 16.8 12.2 6.3 50 5.1 W 20 28 11 15 1012.2 1012.2 0.0
23/07:30pm 18.1 12.8 6.6 47 5.7 W 24 33 13 18 1011.8 1011.8 0.0
23/07:00pm 19.3 14.1 7.4 46 6.1 W 24 32 13 17 1011.3 1011.3 0.0
23/06:30pm 20.3 13.8 6.6 41 6.9 WSW 30 39 16 21 1010.8 1010.8 0.0
23/06:00pm 20.6 14.1 6.5 40 7.1 W 30 37 16 20 1010.6 1010.6 0.0
23/05:30pm 21.3 15.0 5.6 36 7.8 W 28 41 15 22 1010.4 1010.4 0.0
23/05:00pm 22.2 17.4 8.7 42 7.2 W 24 32 13 17 1009.9 1009.9 0.0
23/04:30pm 22.3 15.4 6.5 36 8.1 WSW 32 39 17 21 1009.7 1009.7 0.0
23/04:00pm 22.3 15.4 6.5 36 8.1 W 32 35 17 19 1009.5 1009.5 0.0
23/03:30pm 22.7 16.8 7.3 37 8.0 WSW 28 41 15 22 1009.0 1009.0 0.0
23/03:00pm 22.4 16.2 6.2 35 8.2 WSW 28 43 15 23 1009.1 1009.1 0.0
23/02:30pm 21.6 14.8 5.1 34 8.2 W 30 41 16 22 1009.3 1009.3 0.0
23/02:02pm 21.8 15.6 6.1 36 7.9 SW 28 46 15 25 1009.5 1009.5 0.0
23/02:00pm 21.8 14.9 6.5 37 7.8 SW 32 46 17 25 1009.6 1009.6 0.0
23/01:30pm 21.9 15.9 8.8 43 7.0 SW 30 39 16 21 1009.7 1009.7 0.0
23/01:00pm 21.7 16.8 8.6 43 6.9 W 24 35 13 19 1009.9 1009.9 0.0
23/12:30pm 21.0 16.1 8.6 45 6.5 W 24 35 13 19 1010.2 1010.2 0.0
23/12:00pm 20.2 16.5 10.3 53 5.4 WSW 20 41 11 22 1010.4 1010.4 0.0
23/11:30am 20.3 15.9 10.4 53 5.4 WSW 24 32 13 17 1010.4 1010.4 0.0
23/11:00am 19.0 14.8 9.8 55 4.9 W 22 30 12 16 1010.7 1010.7 0.0
23/10:30am 18.7 13.2 9.2 54 5.0 W 28 37 15 20 1010.6 1010.6 0.0
23/10:00am 17.7 14.4 9.6 59 4.3 SW 17 20 9 11 1010.5 1010.5 0.0
23/09:30am 16.9 13.0 9.3 61 4.0 W 20 22 11 12 1010.5 1010.5 0.0
23/09:00am 16.2 11.6 9.6 65 3.4 WSW 24 32 13 17 1010.3 1010.3 1.0
23/08:30am 15.4 11.3 10.2 71 2.7 SW 22 32 12 17 1010.3 1010.3 1.0
23/08:00am 14.4 10.7 10.2 76 2.2 WSW 20 28 11 15 1009.9 1009.9 1.0
23/07:30am 13.5 10.8 10.3 81 1.7 W 15 22 8 12 1009.4 1009.4 1.0
23/07:00am 12.5 9.4 10.4 87 1.1 WSW 17 20 9 11 1009.1 1009.1 1.0
23/06:30am 11.2 8.1 10.4 95 0.4 WSW 17 19 9 10 1008.6 1008.6 1.0
23/06:00am 9.6 6.7 9.5 99 0.0 W 15 17 8 9 1008.2 1008.2 1.0
23/05:30am 9.4 6.8 9.3 99 0.0 W 13 15 7 8 1007.8 1007.8 1.0
23/05:00am 9.5 6.9 9.2 98 0.1 WNW 13 15 7 8 1007.3 1007.3 1.0
23/04:30am 10.4 8.7 9.8 96 0.3 W 9 11 5 6 1007.0 1007.0 1.0
23/04:00am 11.8 8.5 11.0 95 0.4 SW 19 24 10 13 1006.7 1006.7 1.0
23/03:30am 12.6 9.6 12.0 96 0.3 SW 19 24 10 13 1006.6 1006.6 1.0
23/03:00am 12.0 10.5 11.8 99 0.1 SW 11 15 6 8 1006.5 1006.5 1.0
23/02:30am 12.8 11.1 12.6 99 0.1 WSW 13 19 7 10 1006.5 1006.5 1.0
23/02:00am 13.3 11.0 13.0 98 0.2 SW 17 22 9 12 1006.2 1006.2 1.0
23/01:30am 13.1 10.4 12.9 99 0.1 SW 19 24 10 13 1006.3 1006.3 1.0
23/01:00am 12.0 9.7 11.8 99 0.1 W 15 17 8 9 1006.0 1006.0 1.0
23/12:30am 12.2 10.4 12.0 99 0.1 W 13 17 7 9 1005.7 1005.7 1.0
23/12:00am 12.7 11.0 12.5 99 0.1 WNW 13 15 7 8 1005.5 1005.5 1.0
 
Date/Time
EDT
Temp
°C
App
Temp
°C
Dew
Point
Rel
Hum
%
Delta-T
°C
Wind Press
QNH
hPa
Press
MSL
hPa
Rain
since 9 am
mm
Dir
 
Spd
km/h
Gust
km/h
Spd
kts
Gust
kts
22/11:30pm 12.9 12.4 12.7 99 0.1 SSW 7 11 4 6 1005.7 1005.7 1.0
22/11:00pm 14.0 13.5 13.7 98 0.2 SSW 9 15 5 8 1005.8 1005.8 1.0
22/10:30pm 14.0 13.1 13.7 98 0.2 S 11 15 6 8 1005.9 1005.9 1.0
22/10:00pm 14.4 14.4 14.2 99 0.1 SSE 7 13 4 7 1006.4 1006.4 1.0
22/09:30pm 14.4 12.9 14.1 98 0.2 ENE 15 20 8 11 1005.7 1005.7 1.0
22/09:00pm 14.0 14.8 13.7 98 0.2 E 2 7 1 4 1005.8 1005.8 1.0
22/08:30pm 14.2 13.7 13.9 98 0.2 SE 9 15 5 8 1005.7 1005.7 1.0
22/08:00pm 14.3 13.4 13.8 97 0.3 E 11 17 6 9 1005.6 1005.6 1.0
22/07:30pm 14.8 13.5 13.7 93 0.6 E 13 17 7 9 1006.1 1006.1 1.0
22/07:00pm 15.2 13.6 13.9 92 0.7 E 15 22 8 12 1005.9 1005.9 1.0
22/06:30pm 15.4 13.9 14.1 92 0.7 E 15 22 8 12 1006.0 1006.0 1.0
22/06:00pm 15.8 13.9 14.2 90 0.9 E 17 24 9 13 1006.0 1006.0 1.0
22/05:30pm 15.5 13.7 14.4 93 0.6 E 17 22 9 12 1006.4 1006.4 1.0
22/05:23pm 15.7 14.0 14.7 94 0.6 E 17 24 9 13 1006.4 1006.4 1.0
22/05:00pm 15.4 13.2 14.3 93 0.6 E 19 22 10 12 1006.5 1006.5 1.0
22/04:30pm 16.1 14.3 14.5 90 0.9 E 17 20 9 11 1006.6 1006.6 1.0
22/04:00pm 16.5 15.5 15.7 95 0.5 E 15 22 8 12 1007.0 1007.0 1.0
22/03:30pm 15.4 13.4 14.9 97 0.3 E 19 24 10 13 1007.3 1007.3 1.0
22/03:26pm 15.5 13.6 15.3 99 0.1 E 19 26 10 14 1007.3 1007.3 1.0
22/03:00pm 14.7 13.7 14.5 99 0.1 E 13 20 7 11 1007.9 1007.9 1.0
22/02:55pm 14.6 13.5 14.4 99 0.1 E 13 19 7 10 1008.1 1008.1 0.8
22/02:30pm 15.0 13.9 14.2 95 0.5 E 13 19 7 10 1008.7 1008.7 0.4
22/02:00pm 15.3 14.2 14.2 93 0.6 E 13 19 7 10 1008.7 1008.7 0.4
22/01:30pm 15.1 13.3 14.5 96 0.3 E 17 22 9 12 1008.8 1008.8 0.4
22/01:17pm 14.7 12.7 13.9 95 0.4 E 17 22 9 12 1009.1 1009.1 0.4
22/01:00pm 15.1 13.5 14.9 99 0.1 E 17 22 9 12 1009.1 1009.1 0.4
22/12:30pm 14.4 12.5 13.1 92 0.7 E 15 20 8 11 1009.8 1009.8 0.2
22/12:00pm 14.7 12.1 13.1 90 0.9 E 19 28 10 15 1009.5 1009.5 0.2
22/11:30am 15.2 12.1 11.6 79 1.9 E 19 28 10 15 1009.7 1009.7 0.2
22/11:17am 16.4 14.1 12.9 80 1.9 E 17 28 9 15 1009.7 1009.7 0.2
22/11:00am 15.6 13.1 12.2 80 1.9 E 17 22 9 12 1009.8 1009.8 0.2
22/10:30am 13.9 12.0 11.8 87 1.1 E 13 17 7 9 1010.3 1010.3 0.2
22/10:17am 14.3 12.4 11.8 85 1.3 E 13 20 7 11 1010.4 1010.4 0.2
22/10:00am 13.6 12.0 11.7 88 1.0 E 11 15 6 8 1010.5 1010.5 0.2
22/09:30am 13.5 12.1 12.1 91 0.8 E 11 17 6 9 1010.4 1010.4 0.2
22/09:00am 12.5 11.9 11.7 95 0.4 E 6 9 3 5 1010.8 1010.8 0.0
22/08:30am 11.5 11.9 11.2 98 0.2 CALM 0 6 0 3 1010.7 1010.7 0.0
22/08:00am 9.8 9.8 9.7 99 0.1 CALM 0 0 0 0 1010.6 1010.6 0.0
22/07:30am 8.9 7.5 8.8 99 0.0 WSW 6 7 3 4 1011.1 1011.1 0.0
22/07:14am 8.6 6.9 8.5 99 0.0 W 7 11 4 6 1011.0 1011.0 0.0
22/07:00am 8.4 6.3 8.3 99 0.0 WSW 9 9 5 5 1011.1 1011.1 0.0
22/06:38am 8.1 6.3 8.0 99 0.0 W 7 11 4 6 1011.0 1011.0 0.0
22/06:30am 7.9 5.7 7.8 99 0.0 W 9 11 5 6 1011.0 1011.0 0.0
22/06:00am 7.4 4.7 7.3 99 0.0 W 11 13 6 7 1010.8 1010.8 0.0
22/05:30am 6.8 3.9 6.7 99 0.0 W 11 15 6 8 1010.6 1010.6 0.0
22/05:00am 6.4 3.8 6.3 99 0.0 W 9 13 5 7 1010.2 1010.2 0.0
22/04:30am 5.9 2.9 5.8 99 0.0 W 11 11 6 6 1010.0 1010.0 0.0
22/04:00am 5.3 2.5 5.2 99 0.0 WNW 9 13 5 7 1009.8 1009.8 0.0
22/03:30am 5.5 2.8 5.4 99 0.0 WNW 9 13 5 7 1009.7 1009.7 0.0
22/03:00am 5.4 1.9 5.3 99 0.0 W 13 15 7 8 1009.9 1009.9 0.0
22/02:30am 5.3 2.5 5.2 99 0.0 W 9 11 5 6 1009.9 1009.9 0.0
22/02:00am 4.8 1.9 4.7 99 0.0 WSW 9 9 5 5 1010.1 1010.1 0.0
22/01:30am 4.6 2.1 4.5 99 0.0 SW 7 11 4 6 1010.6 1010.6 0.0
22/01:00am 5.6 3.4 5.5 99 0.0 S 6 7 3 4 1011.3 1011.3 0.0
22/12:30am 5.6 3.2 5.3 98 0.1 S 7 11 4 6 1011.5 1011.5 0.0
22/12:00am 6.2 4.1 5.9 98 0.1 S 6 9 3 5 1011.8 1011.8 0.0
 
Date/Time
EDT
Temp
°C
App
Temp
°C
Dew
Point
Rel
Hum
%
Delta-T
°C
Wind Press
QNH
hPa
Press
MSL
hPa
Rain
since 9 am
mm
Dir
 
Spd
km/h
Gust
km/h
Spd
kts
Gust
kts
21/11:30pm 7.2 4.5 5.8 91 0.6 WSW 9 11 5 6 1012.1 1012.1 0.0
21/11:00pm 10.3 7.4 6.5 77 1.8 WNW 11 15 6 8 1012.4 1012.4 0.0
21/10:30pm 8.0 5.4 6.0 87 0.9 SW 9 13 5 7 1012.1 1012.1 0.0
21/10:00pm 10.3 7.3 5.9 74 2.0 W 11 11 6 6 1012.2 1012.2 0.0
21/09:30pm 11.1 7.2 5.4 68 2.6 WNW 15 19 8 10 1011.8 1011.8 0.0
21/09:00pm 12.5 8.3 5.7 63 3.2 WNW 17 20 9 11 1011.4 1011.4 0.0
21/08:30pm 12.7 8.5 5.6 62 3.3 W 17 20 9 11 1010.8 1010.8 0.0
21/08:00pm 14.4 10.0 4.7 52 4.5 W 17 20 9 11 1010.4 1010.4 0.0
21/07:30pm 15.8 11.1 5.1 49 5.1 WSW 19 26 10 14 1009.8 1009.8 0.0
21/07:00pm 16.9 12.1 5.5 47 5.5 W 20 33 11 18 1009.3 1009.3 0.0
21/06:30pm 17.4 12.1 5.0 44 5.9 WSW 22 35 12 19 1008.7 1008.7 0.0
21/06:00pm 17.8 11.8 5.4 44 6.0 WSW 26 37 14 20 1008.3 1008.3 0.0
21/05:30pm 18.3 12.1 4.5 40 6.6 SW 26 35 14 19 1008.1 1008.1 0.0
21/05:00pm 18.9 12.6 5.7 42 6.5 W 28 39 15 21 1007.9 1007.9 0.0
21/04:30pm 18.9 12.1 5.0 40 6.7 W 30 43 16 23 1007.7 1007.7 0.0
21/04:00pm 18.9 13.3 5.4 41 6.6 WSW 24 35 13 19 1007.7 1007.7 0.0

Other Formats:

Comma delimited format used in spreadsheet applications
http://www.bom.gov.au/fwo/IDT60801/IDT60801.95957.axf

JavaScript Object Notation format (JSON) in row-major order
http://www.bom.gov.au/fwo/IDT60801/IDT60801.95957.json